Weather at RNAS Portland Heliport

Public forecast

Using degrees Celsius for public forecast. Weather courtesy of forecast.io.

Closest aviation weather report (METAR) to RNAS Portland Heliport

Report is more than 2 hours old.

Closest report is Bournemouth Airport, 26.4 nm (48.8 km) ENE. Retrieved 2021/04/16 18:50 UTC (2 hours ago):

EGHH 161850Z 27005KT CAVOK 08/01 Q1029

Closest aviation forecast (TAF) to RNAS Portland Heliport

Forecast is more than 12 hours old.

Closest forecast is Bournemouth Airport, 26.4 nm (48.8 km) ENE. Retrieved 2020/02/21 21:06 UTC (1 year ago):

TAF EGHH 210200Z 2021/2123 CNL